Time;durP1;ratioP1;P1;durP2;ratioP2;P2;SDS_P1;SDS_P2;PMS_P1;PMS_P2;Temp;Humidity;BMP_temperature;BMP_pressure;BME280_temperature;BME280_humidity;BME280_pressure;Samples;Min_cycle;Max_cycle;Signal;HPM_P1;HPM_P2
2022/11/04 00:01:54;;;;;;;1.52;0.85;;;;;;;6.65;100.00;98653.59;4993572;28;20031;-77
2022/11/04 00:04:27;;;;;;;2.08;1.20;;;;;;;6.65;100.00;98661.75;5000499;28;20042;-78
2022/11/04 00:06:54;;;;;;;2.58;0.98;;;;;;;6.59;100.00;98660.97;4991936;28;20018;-76
2022/11/04 00:09:30;;;;;;;2.28;0.88;;;;;;;6.54;100.00;98658.31;4964184;28;20078;-78
2022/11/04 00:14:41;;;;;;;1.48;0.73;;;;;;;6.45;100.00;98671.66;4985205;28;20028;-77
2022/11/04 00:17:27;;;;;;;3.05;1.27;;;;;;;6.46;100.00;98684.13;4967488;28;20046;-78
2022/11/04 00:33:55;;;;;;;5.03;1.23;;;;;;;6.39;100.00;98727.06;5002333;28;20275;-77
2022/11/04 00:36:22;;;;;;;1.95;1.13;;;;;;;6.38;100.00;98736.31;4985900;28;20042;-76
2022/11/04 00:39:19;;;;;;;1.83;1.08;;;;;;;6.33;100.00;98728.19;4985565;28;20031;-75
2022/11/04 00:41:37;;;;;;;1.45;0.90;;;;;;;6.42;100.00;98742.78;5003075;28;20058;-77
2022/11/04 00:44:18;;;;;;;2.35;1.20;;;;;;;6.42;100.00;98734.66;4976773;28;20018;-76
2022/11/04 00:46:56;;;;;;;3.80;1.33;;;;;;;6.66;100.00;98742.16;4993182;28;20022;-78
2022/11/04 00:49:21;;;;;;;0.70;0.70;;;;;;;6.75;100.00;98739.66;4960179;28;20031;-76
2022/11/04 00:51:47;;;;;;;1.60;0.93;;;;;;;6.86;100.00;98740.38;4962016;28;20042;-78
2022/11/04 00:54:12;;;;;;;0.77;0.77;;;;;;;7.00;100.00;98765.81;4966716;28;20041;-77
2022/11/04 00:56:39;;;;;;;4.55;1.40;;;;;;;7.07;100.00;98769.03;4989781;28;20049;-81
2022/11/04 00:59:05;;;;;;;2.67;1.27;;;;;;;7.15;100.00;98778.47;4974532;28;20074;-77
2022/11/04 01:01:30;;;;;;;1.88;1.25;;;;;;;7.21;100.00;98784.69;4986068;28;20030;-78
2022/11/04 01:03:56;;;;;;;2.50;1.52;;;;;;;7.23;100.00;98787.94;4991639;28;20030;-79
2022/11/04 01:06:24;;;;;;;1.75;1.08;;;;;;;7.26;100.00;98795.53;5000030;28;20010;-78
2022/11/04 01:08:58;;;;;;;1.98;1.20;;;;;;;7.28;100.00;98801.50;5009133;28;20022;-78
2022/11/04 01:11:28;;;;;;;3.28;1.13;;;;;;;7.23;100.00;98799.63;4985205;28;20031;-77
2022/11/04 01:13:54;;;;;;;3.00;1.20;;;;;;;7.26;100.00;98809.13;4992335;28;20030;-76
2022/11/04 01:16:22;;;;;;;1.48;1.10;;;;;;;7.31;100.00;98828.13;5005394;28;20508;-77
2022/11/04 01:18:48;;;;;;;1.85;1.00;;;;;;;7.33;100.00;98832.19;4989104;28;20098;-76
2022/11/04 01:21:16;;;;;;;1.00;0.80;;;;;;;7.35;100.00;98842.78;4977617;28;20010;-79
2022/11/04 01:23:45;;;;;;;1.63;1.10;;;;;;;7.41;100.00;98836.19;4978126;28;20026;-80
2022/11/04 01:26:14;;;;;;;0.70;0.70;;;;;;;7.47;100.00;98836.97;5006068;28;20050;-78
2022/11/04 01:28:43;;;;;;;4.95;1.13;;;;;;;7.59;100.00;98839.31;4994218;28;20070;-79
2022/11/04 01:31:29;;;;;;;1.67;1.45;;;;;;;7.69;100.00;98839.22;4977153;28;20025;-78
2022/11/04 01:34:08;;;;;;;;;;;;;;;;;;;;;
2022/11/04 01:36:37;;;;;;;1.75;1.10;;;;;;;7.82;100.00;98851.38;5007002;28;20061;-79
2022/11/04 01:39:04;;;;;;;2.22;1.35;;;;;;;7.86;100.00;98864.13;4994745;28;20030;-81
2022/11/04 01:41:59;;;;;;;1.40;1.02;;;;;;;7.88;100.00;98860.31;4985347;28;20050;-77
2022/11/04 01:44:47;;;;;;;4.45;1.45;;;;;;;7.98;100.00;98879.25;4990660;28;20042;-79
2022/11/04 01:47:19;;;;;;;2.10;1.20;;;;;;;7.97;100.00;98875.72;5007105;28;20031;-79
2022/11/04 01:49:57;;;;;;;2.22;0.93;;;;;;;8.06;100.00;98886.81;5005829;28;20026;-78
2022/11/04 01:52:40;;;;;;;3.80;0.90;;;;;;;8.16;100.00;98903.06;4991892;28;20428;-78
2022/11/04 01:55:14;;;;;;;6.03;1.27;;;;;;;8.24;100.00;98915.22;4996197;28;20046;-78
2022/11/04 01:57:43;;;;;;;1.73;1.05;;;;;;;8.35;100.00;98921.38;5007436;28;20026;-79
2022/11/04 02:00:11;;;;;;;2.53;1.05;;;;;;;8.39;100.00;98938.75;4990572;28;20023;-80
2022/11/04 02:02:50;;;;;;;2.20;1.00;;;;;;;8.31;100.00;98929.31;4977617;28;20030;-79
2022/11/04 02:05:16;;;;;;;2.65;1.20;;;;;;;8.35;100.00;98948.59;5000352;28;20022;-79
2022/11/04 02:07:56;;;;;;;;;;;;;;;;;;;;;
2022/11/04 02:10:46;;;;;;;;;;;;;;;;;;;;;
2022/11/04 02:13:12;;;;;;;3.53;1.40;;;;;;;8.15;100.00;98964.03;5002764;28;20054;-79
2022/11/04 02:15:48;;;;;;;3.13;1.70;;;;;;;8.21;100.00;98984.69;4985731;28;20037;-78
2022/11/04 02:18:36;;;;;;;8.38;1.95;;;;;;;8.14;100.00;98986.91;4994613;28;20066;-80
2022/11/04 02:21:17;;;;;;;3.15;2.10;;;;;;;8.12;100.00;98994.56;4987548;28;20041;-79
2022/11/04 02:23:52;;;;;;;6.57;3.17;;;;;;;8.12;100.00;99000.00;4983723;28;20035;-79
2022/11/04 02:26:24;;;;;;;6.78;3.20;;;;;;;8.07;100.00;99004.69;4984973;28;20054;-79
2022/11/04 03:05:05;;;;;;;7.13;4.20;;;;;;;6.96;100.00;99067.22;4993376;23;20055;-79
2022/11/04 03:07:35;;;;;;;9.93;4.65;;;;;;;6.91;100.00;99080.84;4957246;28;20036;-78
2022/11/04 03:10:06;;;;;;;7.20;4.35;;;;;;;6.70;100.00;99080.06;4972413;28;20034;-79
2022/11/04 03:12:38;;;;;;;4.97;3.40;;;;;;;6.64;100.00;99083.84;4965219;28;20031;-78
2022/11/04 03:15:10;;;;;;;7.38;4.32;;;;;;;6.58;100.00;99084.94;4962151;28;20023;-79
2022/11/04 03:17:49;;;;;;;7.90;4.13;;;;;;;6.45;100.00;99084.44;4983731;28;20046;-78
2022/11/04 03:20:22;;;;;;;5.13;3.50;;;;;;;6.42;100.00;99105.88;4965834;28;20052;-78
2022/11/04 03:22:54;;;;;;;9.68;4.57;;;;;;;6.29;100.00;99108.03;4973995;28;20035;-78
2022/11/04 03:25:26;;;;;;;9.63;5.47;;;;;;;6.08;100.00;99120.75;4964179;28;20073;-77
2022/11/04 03:28:10;;;;;;;6.72;3.70;;;;;;;5.93;100.00;99136.97;4968502;28;20107;-79
2022/11/04 03:30:46;;;;;;;7.07;4.07;;;;;;;5.77;100.00;99145.06;4964591;28;20024;-79
2022/11/04 03:33:39;;;;;;;9.73;4.18;;;;;;;5.62;100.00;99153.09;4965423;28;20099;-80
2022/11/04 03:36:07;;;;;;;8.43;3.35;;;;;;;5.54;100.00;99157.16;4959449;28;20051;-80
2022/11/04 03:38:36;;;;;;;6.57;3.53;;;;;;;5.48;100.00;99162.81;4957995;28;20092;-81
2022/11/04 03:41:22;;;;;;;;;;;;;;;;;;;;;
2022/11/04 03:43:50;;;;;;;5.38;2.53;;;;;;;5.33;100.00;99167.09;4961609;28;20035;-80
2022/11/04 03:46:16;;;;;;;6.68;2.22;;;;;;;5.28;100.00;99177.06;4960648;28;20157;-79
2022/11/04 03:48:46;;;;;;;4.60;2.25;;;;;;;5.27;100.00;99183.56;4963936;28;20039;-78
2022/11/04 03:51:11;;;;;;;2.55;1.90;;;;;;;5.18;100.00;99185.94;4961240;28;20050;-78
2022/11/04 03:53:50;;;;;;;4.55;1.98;;;;;;;5.14;100.00;99195.66;4952993;28;20126;-79
2022/11/04 03:56:25;;;;;;;2.40;1.65;;;;;;;5.10;100.00;99210.84;4967242;28;20036;-81
2022/11/04 03:59:09;;;;;;;;;;;;;;;5.09;100.00;99228.16;4960349;28;20035;-80
2022/11/04 04:02:10;;;;;;;5.22;1.80;;;;;;;5.09;100.00;99230.88;4966259;28;19926;-79
2022/11/04 04:08:19;;;;;;;5.13;2.05;;;;;;;5.02;100.00;99259.00;4945368;28;20043;-79
2022/11/04 04:10:59;;;;;;;4.13;1.98;;;;;;;5.01;100.00;99256.56;4960062;28;20027;-80
2022/11/04 04:13:46;;;;;;;3.88;1.83;;;;;;;4.95;100.00;99255.69;4959826;28;20047;-80
2022/11/04 04:16:59;;;;;;;6.25;2.10;;;;;;;4.92;100.00;99253.50;4969624;28;20064;-79
2022/11/04 04:19:38;;;;;;;3.20;1.52;;;;;;;4.84;100.00;99256.66;4948302;28;20043;-79
2022/11/04 04:22:27;;;;;;;6.13;2.22;;;;;;;4.89;100.00;99270.25;4950631;28;20030;-79
2022/11/04 04:28:10;;;;;;;;;;;;;;;;;;;;;
2022/11/04 04:30:51;;;;;;;;;;;;;;;;;;;;;
2022/11/04 04:33:27;;;;;;;3.97;1.65;;;;;;;4.82;100.00;99291.31;4961727;28;20062;-79
2022/11/04 04:35:58;;;;;;;4.55;2.08;;;;;;;4.80;100.00;99296.97;4961093;28;20052;-78
2022/11/04 04:47:04;;;;;;;;;;;;;;;;;;;;;
2022/11/04 04:52:25;;;;;;;3.28;2.00;;;;;;;4.79;100.00;99357.66;5214746;23;20050;-79
2022/11/04 04:54:51;;;;;;;2.85;2.13;;;;;;;4.72;100.00;99360.56;4984971;28;20034;-79
2022/11/04 04:57:17;;;;;;;3.40;2.45;;;;;;;4.76;100.00;99379.00;4975908;28;20464;-80
2022/11/04 04:59:45;;;;;;;5.07;2.55;;;;;;;4.74;100.00;99387.38;4989632;28;20031;-80
2022/11/04 05:02:15;;;;;;;5.45;2.97;;;;;;;4.76;100.00;99398.81;4979040;28;20050;-80
2022/11/04 05:04:41;;;;;;;6.43;3.03;;;;;;;4.77;100.00;99410.44;4968677;28;20092;-79
2022/11/04 05:07:09;;;;;;;4.05;2.67;;;;;;;4.78;100.00;99420.22;4987745;28;19998;-79
2022/11/04 05:09:35;;;;;;;5.65;2.35;;;;;;;4.75;100.00;99421.53;4987015;28;20057;-78
2022/11/04 05:12:14;;;;;;;5.95;2.88;;;;;;;4.72;100.00;99425.56;4982111;28;20054;-79
2022/11/04 05:14:57;;;;;;;8.02;3.20;;;;;;;4.69;100.00;99439.59;4974750;28;20084;-79
2022/11/04 05:17:32;;;;;;;5.47;3.47;;;;;;;4.75;100.00;99447.81;4990433;28;20042;-79
2022/11/04 05:20:18;;;;;;;4.70;3.20;;;;;;;4.76;100.00;99468.38;4960872;28;20026;-79
2022/11/04 05:22:55;;;;;;;9.13;3.45;;;;;;;4.71;100.00;99478.06;4989012;28;20109;-80
2022/11/04 05:28:28;;;;;;;8.45;3.45;;;;;;;4.66;100.00;99494.28;4993419;28;20046;-81
2022/11/04 05:31:31;;;;;;;;;;;;;;;;;;;;;
2022/11/04 05:34:42;;;;;;;;;;;;;;;;;;;;;
2022/11/04 05:38:21;;;;;;;9.80;4.38;;;;;;;4.62;100.00;99536.47;4996202;28;20034;-81
2022/11/04 05:40:28;;;;;;;11.07;4.28;;;;;;;4.60;100.00;99543.19;4989757;28;20058;-80
2022/11/04 05:43:26;;;;;;;10.80;4.18;;;;;;;4.61;100.00;99550.25;5003342;28;20007;-79
2022/11/04 05:45:52;;;;;;;8.60;3.85;;;;;;;4.58;100.00;99581.34;4977528;28;20019;-80
2022/11/04 05:48:30;;;;;;;11.27;4.88;;;;;;;4.54;100.00;99589.16;4985590;28;20035;-78
2022/11/04 05:51:21;;;;;;;14.20;5.70;;;;;;;4.54;100.00;99599.16;4975056;28;20092;-80
2022/11/04 05:53:47;;;;;;;18.98;7.18;;;;;;;4.56;100.00;99607.88;4974455;28;20027;-81
2022/11/04 05:56:15;;;;;;;13.13;5.75;;;;;;;4.55;100.00;99622.47;4965128;28;20037;-80
2022/11/04 05:59:03;;;;;;;;;;;;;;;;;;;;;
2022/11/04 06:01:34;;;;;;;12.82;6.95;;;;;;;4.46;100.00;99629.34;5002078;28;20474;-80
2022/11/04 06:04:01;;;;;;;14.13;6.85;;;;;;;4.48;100.00;99638.03;4988845;28;20033;-78
2022/11/04 06:06:29;;;;;;;17.58;7.97;;;;;;;4.47;100.00;99653.47;4983132;28;20060;-78
2022/11/04 06:08:58;;;;;;;15.00;7.20;;;;;;;4.48;100.00;99654.28;5002316;28;20041;-79
2022/11/04 06:11:25;;;;;;;15.93;7.55;;;;;;;4.59;100.00;99653.41;4987334;28;20065;-79
2022/11/04 06:13:53;;;;;;;13.13;7.90;;;;;;;4.71;100.00;99658.72;4977266;28;20031;-80
2022/11/04 06:16:19;;;;;;;14.65;7.32;;;;;;;4.81;100.00;99663.50;4986369;28;20591;-81
2022/11/04 06:18:44;;;;;;;10.90;7.35;;;;;;;4.81;100.00;99663.50;4976435;28;20041;-79
2022/11/04 06:21:17;;;;;;;10.50;7.40;;;;;;;4.79;100.00;99660.19;4989393;28;20107;-80
2022/11/04 06:23:54;;;;;;;;;;;;;;;;;;;;;
2022/11/04 06:26:20;;;;;;;12.65;7.32;;;;;;;4.75;100.00;99672.63;4989382;28;20097;-78
2022/11/04 06:28:46;;;;;;;10.20;6.93;;;;;;;4.78;100.00;99680.25;5006166;28;20082;-79
2022/11/04 06:31:12;;;;;;;10.18;7.65;;;;;;;4.80;100.00;99672.69;5009017;28;20038;-79
2022/11/04 06:33:38;;;;;;;14.07;8.95;;;;;;;4.83;100.00;99677.63;4974275;28;20077;-78
2022/11/04 06:36:09;;;;;;;22.10;9.15;;;;;;;4.89;100.00;99671.19;4997769;28;20046;-77
2022/11/04 06:38:38;;;;;;;12.77;7.90;;;;;;;4.85;100.00;99686.34;4986160;28;20125;-78
2022/11/04 06:41:17;;;;;;;18.30;8.15;;;;;;;4.75;100.00;99691.59;5000882;28;20113;-79
2022/11/04 06:43:55;;;;;;;;;;;;;;;;;;;;;
2022/11/04 06:46:38;;;;;;;12.23;8.13;;;;;;;4.48;100.00;99698.44;4995458;28;20042;-79
2022/11/04 06:49:08;;;;;;;17.55;9.30;;;;;;;4.45;100.00;99703.50;4985679;28;20026;-79
2022/11/04 06:51:41;;;;;;;23.48;10.25;;;;;;;4.45;100.00;99708.94;4983162;28;20041;-79
2022/11/04 06:54:17;;;;;;;;;;;;;;;;;;;;;
2022/11/04 06:56:46;;;;;;;18.40;10.02;;;;;;;4.44;100.00;99737.06;5016500;28;20047;-79
2022/11/04 06:59:17;;;;;;;18.73;10.35;;;;;;;4.45;100.00;99741.41;5001091;28;20086;-81
2022/11/04 07:01:43;;;;;;;19.58;9.63;;;;;;;4.40;100.00;99744.84;4996180;28;20034;-80
2022/11/04 07:04:14;;;;;;;20.67;9.38;;;;;;;4.39;100.00;99754.03;5002766;28;20030;-79
2022/11/04 07:06:45;;;;;;;26.15;11.23;;;;;;;4.38;100.00;99765.94;4999547;28;20041;-80
2022/11/04 07:09:15;;;;;;;22.63;11.18;;;;;;;4.45;100.00;99773.91;4960309;28;20026;-79
2022/11/04 07:11:41;;;;;;;22.25;11.50;;;;;;;4.41;100.00;99770.03;4984525;28;20061;-79
2022/11/04 07:14:14;;;;;;;24.27;12.13;;;;;;;4.43;100.00;99792.28;5007106;28;20080;-78
2022/11/04 07:16:40;;;;;;;26.15;11.70;;;;;;;4.45;100.00;99812.63;5004109;28;20026;-78
2022/11/04 07:19:18;;;;;;;21.98;10.68;;;;;;;4.47;100.00;99820.53;5003240;28;20027;-76
2022/11/04 07:22:15;;;;;;;22.20;11.70;;;;;;;4.53;100.00;99835.81;5001897;28;20049;-79
2022/11/04 07:24:48;;;;;;;25.02;11.77;;;;;;;4.52;100.00;99831.44;4999422;28;20052;-79
2022/11/04 07:27:17;;;;;;;26.17;12.48;;;;;;;4.59;100.00;99836.75;5004582;28;20112;-78
2022/11/04 07:30:03;;;;;;;22.83;12.63;;;;;;;4.58;100.00;99844.03;5000981;28;20026;-78
2022/11/04 07:32:28;;;;;;;23.25;12.10;;;;;;;4.62;100.00;99839.78;5018944;28;20130;-78
2022/11/04 07:34:54;;;;;;;22.63;12.00;;;;;;;4.68;100.00;99849.63;4976419;28;20160;-80
2022/11/04 07:37:40;;;;;;;21.17;11.43;;;;;;;4.70;100.00;99855.66;4992020;28;20031;-81
2022/11/04 07:40:28;;;;;;;20.98;11.75;;;;;;;4.70;100.00;99852.94;4999651;28;20065;-78
2022/11/04 07:45:47;;;;;;;23.67;11.52;;;;;;;4.87;100.00;99873.84;4945897;29;20035;-79
2022/11/04 07:48:13;;;;;;;20.58;11.50;;;;;;;4.87;100.00;99868.41;4934316;29;20059;-78
2022/11/04 07:50:39;;;;;;;22.98;10.70;;;;;;;4.95;100.00;99881.59;4964109;28;20113;-78
2022/11/04 07:53:15;;;;;;;;;;;;;;;;;;;;;
2022/11/04 07:56:10;;;;;;;16.13;10.60;;;;;;;5.10;100.00;99904.63;5003608;28;20046;-78
2022/11/04 07:58:36;;;;;;;20.98;11.93;;;;;;;5.13;100.00;99909.56;4990522;28;20023;-81
2022/11/04 08:01:12;;;;;;;21.70;11.07;;;;;;;5.18;100.00;99918.59;4970150;28;20013;-80
2022/11/04 08:03:43;;;;;;;18.73;10.60;;;;;;;5.24;100.00;99922.22;5020801;28;20070;-79
2022/11/04 08:06:15;;;;;;;17.10;8.50;;;;;;;5.32;100.00;99929.97;4983955;28;20030;-77
2022/11/04 08:08:52;;;;;;;29.80;12.70;;;;;;;5.38;100.00;99923.56;5003286;28;20118;-78
2022/11/04 08:11:30;;;;;;;;;;;;;;;;;;;;;
2022/11/04 08:14:16;;;;;;;16.88;9.23;;;;;;;5.60;100.00;99942.66;5020570;28;20045;-79
2022/11/04 08:16:47;;;;;;;23.40;11.43;;;;;;;5.69;100.00;99939.56;4996271;28;20030;-79
2022/11/04 08:19:13;;;;;;;18.98;10.05;;;;;;;5.76;100.00;99935.59;4988654;28;20034;-79
2022/11/04 08:21:56;;;;;;;17.10;10.60;;;;;;;5.83;100.00;99940.06;4983807;28;20022;-80
2022/11/04 08:24:32;;;;;;;;;;;;;;;;;;;;;
2022/11/04 08:27:11;;;;;;;;;;;;;;;;;;;;;
2022/11/04 08:29:40;;;;;;;30.33;15.63;;;;;;;11.36;100.00;99960.81;5019048;28;20044;-78
2022/11/04 08:32:18;;;;;;;33.33;17.67;;;;;;;13.05;100.00;99972.22;5007073;28;20029;-78
2022/11/04 08:34:44;;;;;;;37.00;18.52;;;;;;;14.23;100.00;99977.09;4967086;28;20037;-79
2022/11/04 08:37:24;;;;;;;38.80;17.80;;;;;;;14.93;100.00;99986.28;5004706;28;20026;-79
2022/11/04 08:39:57;;;;;;;31.30;15.38;;;;;;;16.08;100.00;99989.84;5003388;28;20066;-78
2022/11/04 08:42:26;;;;;;;34.13;16.45;;;;;;;16.89;100.00;99986.09;5003783;28;20030;-80
2022/11/04 08:45:06;;;;;;;35.65;16.38;;;;;;;17.51;100.00;100000.88;4999679;28;20037;-79
2022/11/04 08:47:32;;;;;;;29.23;14.25;;;;;;;18.59;100.00;100000.16;5010174;28;20046;-77
2022/11/04 08:51:03;;;;;;;;;;;;;;;;;;;;;
2022/11/04 08:54:03;;;;;;;;;;;;;;;;;;;;;
2022/11/04 08:56:32;;;;;;;35.63;13.15;;;;;;;20.04;100.00;100009.47;4960028;28;20078;-77
2022/11/04 08:58:59;;;;;;;27.40;12.55;;;;;;;20.36;100.00;100016.19;4979169;28;20130;-75
2022/11/04 09:01:31;;;;;;;24.25;12.77;;;;;;;20.95;100.00;100017.03;4989092;28;20057;-76
2022/11/04 09:03:56;;;;;;;21.20;11.52;;;;;;;21.16;100.00;100033.59;4981274;28;20034;-76
2022/11/04 09:06:28;;;;;;;26.10;12.82;;;;;;;21.14;100.00;100030.34;4979017;28;20030;-77
2022/11/04 09:09:03;;;;;;;24.83;11.32;;;;;;;21.11;100.00;100025.47;4998907;28;20050;-76
2022/11/04 09:11:37;;;;;;;23.05;11.88;;;;;;;21.82;100.00;100039.25;5000268;28;20034;-75
2022/11/04 09:14:03;;;;;;;21.75;10.38;;;;;;;22.59;97.88;100038.25;4994909;28;20046;-77
2022/11/04 09:16:30;;;;;;;16.23;8.82;;;;;;;23.30;91.65;100041.28;4997176;28;20026;-77
2022/11/04 09:18:56;;;;;;;17.02;8.23;;;;;;;23.81;85.36;100051.59;4991849;28;20032;-77
2022/11/04 09:21:28;;;;;;;27.15;9.15;;;;;;;24.50;80.98;100051.88;4998663;28;20014;-76
2022/11/04 09:23:54;;;;;;;13.40;6.50;;;;;;;25.00;78.72;100057.59;4990199;28;20043;-78
2022/11/04 09:26:21;;;;;;;14.75;7.00;;;;;;;25.57;75.70;100074.53;4998697;28;20505;-77
2022/11/04 09:28:46;;;;;;;16.77;7.18;;;;;;;25.29;76.81;100065.63;4997784;28;20098;-77
2022/11/04 09:31:15;;;;;;;20.15;7.10;;;;;;;25.13;76.57;100071.38;4982620;28;20420;-77
2022/11/04 09:33:40;;;;;;;17.67;6.20;;;;;;;25.44;76.38;100065.53;4991359;28;20023;-77
2022/11/04 09:36:11;;;;;;;11.68;4.72;;;;;;;25.94;77.03;100070.25;4992878;28;20089;-77
2022/11/04 09:38:39;;;;;;;6.18;3.78;;;;;;;26.83;74.87;100072.53;4994087;28;20039;-77
2022/11/04 09:41:27;;;;;;;16.98;5.13;;;;;;;27.40;77.03;100091.09;4996286;28;20038;-76
2022/11/04 09:44:05;;;;;;;11.18;5.10;;;;;;;28.10;74.60;100093.97;4988712;28;20078;-77
2022/11/04 09:46:33;;;;;;;8.15;3.55;;;;;;;28.49;69.90;100098.94;4986829;28;20031;-77
2022/11/04 09:49:01;;;;;;;7.30;3.95;;;;;;;28.90;69.88;100107.13;4995499;28;20095;-78
2022/11/04 09:51:27;;;;;;;15.68;3.80;;;;;;;29.30;69.91;100110.78;4999601;28;20042;-77
2022/11/04 09:54:13;;;;;;;9.00;3.55;;;;;;;28.91;73.68;100103.09;4977775;28;20046;-77
2022/11/04 09:56:43;;;;;;;7.93;2.53;;;;;;;29.34;71.37;100100.34;4991356;28;20027;-77
2022/11/04 09:59:14;;;;;;;4.22;1.80;;;;;;;30.08;69.17;100109.09;4990059;28;20086;-77
2022/11/04 10:02:08;;;;;;;8.30;2.47;;;;;;;30.04;71.88;100113.94;4992922;28;20034;-78
2022/11/04 10:04:50;;;;;;;4.97;1.67;;;;;;;30.39;72.36;100142.44;5007437;28;20026;-77
2022/11/04 10:07:15;;;;;;;5.82;2.15;;;;;;;31.04;67.39;100114.69;4993294;28;20018;-77
2022/11/04 10:10:05;;;;;;;8.38;2.22;;;;;;;31.14;70.53;100125.13;4991104;28;20046;-78
2022/11/04 10:13:01;;;;;;;7.10;1.73;;;;;;;31.41;72.11;100137.81;4997479;28;20511;-77
2022/11/04 10:15:44;;;;;;;4.45;1.40;;;;;;;32.61;69.25;100132.53;4995459;28;20031;-77
2022/11/04 10:18:28;;;;;;;4.00;1.50;;;;;;;33.46;68.80;100140.25;4992491;28;20018;-76
2022/11/04 10:21:28;;;;;;;9.88;2.00;;;;;;;32.93;68.86;100137.78;4988756;28;20263;-75
2022/11/04 10:24:16;;;;;;;4.78;1.23;;;;;;;32.49;65.37;100148.88;4995168;28;20037;-76
2022/11/04 10:26:45;;;;;;;6.60;2.00;;;;;;;32.21;65.95;100143.56;4913368;29;20046;-76
2022/11/04 10:29:32;;;;;;;7.32;1.58;;;;;;;32.18;67.12;100150.84;4986244;28;20034;-77
2022/11/04 10:32:06;;;;;;;6.43;1.67;;;;;;;31.80;67.27;100162.91;4993499;28;20041;-77
2022/11/04 10:35:21;;;;;;;9.40;1.43;;;;;;;32.05;71.53;100175.22;4989534;28;20034;-77
2022/11/04 10:37:50;;;;;;;4.82;1.50;;;;;;;33.00;66.28;100182.19;4965398;28;20057;-75
2022/11/04 10:40:38;;;;;;;4.30;1.20;;;;;;;33.81;66.93;100183.41;4990772;28;20118;-77
2022/11/04 10:43:09;;;;;;;3.40;1.10;;;;;;;33.55;65.04;100172.44;4983937;28;20091;-76
2022/11/04 10:46:06;;;;;;;5.28;1.15;;;;;;;34.35;67.01;100166.19;4993659;28;20025;-76
2022/11/04 10:48:42;;;;;;;6.85;1.10;;;;;;;35.38;63.40;100184.25;4997764;28;20023;-77
2022/11/04 10:51:08;;;;;;;1.77;0.90;;;;;;;36.19;61.76;100187.44;4997382;28;20014;-76
2022/11/04 10:53:34;;;;;;;6.72;1.48;;;;;;;36.30;60.89;100190.81;4972027;28;20055;-77
2022/11/04 10:56:32;;;;;;;3.65;1.42;;;;;;;36.04;66.56;100181.34;4965835;28;20019;-75
2022/11/04 10:59:24;;;;;;;4.85;1.20;;;;;;;36.57;64.78;100171.75;4983062;28;20027;-77
2022/11/04 11:01:56;;;;;;;1.15;0.60;;;;;;;36.71;61.36;100170.53;4978061;28;20023;-79
2022/11/04 11:05:10;;;;;;;7.18;0.88;;;;;;;36.67;65.47;100179.97;4978298;28;20060;-77
2022/11/04 11:07:41;;;;;;;2.83;0.63;;;;;;;37.20;63.17;100170.22;4984407;28;21087;-80
2022/11/04 11:10:18;;;;;;;1.98;0.70;;;;;;;38.16;63.76;100178.84;4947648;28;20015;-77
2022/11/04 11:13:00;;;;;;;4.03;0.75;;;;;;;38.97;61.10;100181.13;4969899;28;20453;-78
2022/11/04 11:15:37;;;;;;;2.35;0.70;;;;;;;38.19;62.73;100175.88;4969788;28;20098;-78
2022/11/04 11:18:21;;;;;;;5.70;0.95;;;;;;;37.35;62.39;100182.81;4980215;28;20027;-73
2022/11/04 11:21:09;;;;;;;4.43;1.05;;;;;;;37.02;66.04;100179.38;4975745;28;20031;-76
2022/11/04 11:23:49;;;;;;;1.48;0.68;;;;;;;37.19;65.54;100191.44;4988864;28;20073;-74
2022/11/04 11:26:28;;;;;;;6.82;1.00;;;;;;;38.58;62.10;100221.34;4976602;28;20034;-75
2022/11/04 11:29:05;;;;;;;8.05;1.00;;;;;;;38.00;61.01;100226.25;4974478;28;20034;-77
2022/11/04 11:31:39;;;;;;;1.90;0.60;;;;;;;38.23;61.08;100224.25;4972916;28;20066;-77
2022/11/04 11:34:15;;;;;;;2.35;0.90;;;;;;;37.06;63.58;100227.69;4995426;28;20066;-78
2022/11/04 11:36:43;;;;;;;6.53;0.85;;;;;;;37.47;63.20;100234.53;4979093;28;20053;-77
2022/11/04 11:39:12;;;;;;;3.10;0.90;;;;;;;37.58;63.59;100235.00;4962469;28;20513;-77
2022/11/04 11:42:09;;;;;;;5.15;0.90;;;;;;;38.22;65.19;100254.88;4981560;28;20113;-76
2022/11/04 11:44:56;;;;;;;2.38;0.73;;;;;;;37.61;65.60;100234.06;4993076;28;20058;-77
2022/11/04 11:47:41;;;;;;;2.17;0.60;;;;;;;36.26;70.90;100241.31;4976296;28;20035;-77
2022/11/04 11:50:14;;;;;;;1.15;0.30;;;;;;;36.38;67.70;100236.94;4970319;28;20494;-79
2022/11/04 11:52:46;;;;;;;3.00;0.80;;;;;;;34.93;72.52;100233.94;4984602;28;20197;-78
2022/11/04 11:55:20;;;;;;;5.93;0.90;;;;;;;34.65;73.85;100248.69;4961439;28;20074;-78
2022/11/04 11:58:21;;;;;;;4.22;0.95;;;;;;;37.16;68.88;100255.03;4980280;28;20021;-77
2022/11/04 12:01:05;;;;;;;3.28;0.70;;;;;;;32.99;71.57;100254.22;4976295;28;20036;-77
2022/11/04 12:03:50;;;;;;;3.38;0.70;;;;;;;30.69;79.76;100249.13;4974071;28;20046;-77
2022/11/04 12:07:06;;;;;;;1.77;0.60;;;;;;;31.20;80.77;100252.56;4980968;28;20026;-77
2022/11/04 12:09:53;;;;;;;3.83;0.88;;;;;;;34.32;78.40;100252.19;4972961;28;20035;-77
2022/11/04 12:12:36;;;;;;;5.00;0.88;;;;;;;32.93;71.63;100244.56;4985917;28;20038;-78
2022/11/04 12:15:11;;;;;;;2.78;0.93;;;;;;;29.24;82.72;100241.91;4975949;28;20026;-77
2022/11/04 12:17:42;;;;;;;2.33;0.70;;;;;;;29.33;82.74;100253.59;4973885;28;20032;-76
2022/11/04 12:20:11;;;;;;;3.45;0.75;;;;;;;28.43;88.31;100258.00;4978846;28;20033;-77
2022/11/04 12:23:05;;;;;;;2.78;0.90;;;;;;;27.81;88.60;100256.72;4972229;28;20020;-77
2022/11/04 12:25:42;;;;;;;5.03;0.82;;;;;;;30.64;81.57;100266.50;4946530;28;20125;-77
2022/11/04 12:28:28;;;;;;;3.75;1.13;;;;;;;33.17;68.85;100271.75;4982366;28;20061;-77
2022/11/04 12:31:12;;;;;;;1.85;0.80;;;;;;;35.30;67.80;100266.00;4971356;28;20483;-78
2022/11/04 12:33:51;;;;;;;2.95;0.77;;;;;;;38.09;59.14;100273.28;4972194;28;20078;-77
2022/11/04 12:36:36;;;;;;;5.38;1.00;;;;;;;39.63;57.10;100269.59;4973493;28;20046;-74
2022/11/04 12:39:14;;;;;;;2.08;0.73;;;;;;;37.10;58.91;100260.50;4973530;28;20029;-74
2022/11/04 12:41:54;;;;;;;2.47;1.08;;;;;;;35.77;67.51;100247.84;4977056;28;20030;-77
2022/11/04 12:44:29;;;;;;;2.30;0.70;;;;;;;32.50;69.64;100238.19;4974060;28;20023;-76
2022/11/04 12:46:59;;;;;;;1.20;0.68;;;;;;;29.27;76.56;100223.44;4972750;28;20063;-75
2022/11/04 12:50:03;;;;;;;0.93;0.60;;;;;;;27.61;86.10;100212.03;4975797;28;20042;-76
2022/11/04 12:52:38;;;;;;;3.67;1.05;;;;;;;26.07;89.23;100213.72;4965892;28;20026;-75
2022/11/04 12:55:13;;;;;;;2.10;0.65;;;;;;;25.76;92.09;100216.41;5023883;28;20041;-75
2022/11/04 12:58:15;;;;;;;4.40;0.90;;;;;;;25.09;98.06;100227.97;5003030;28;20038;-76
2022/11/04 13:00:47;;;;;;;4.60;0.93;;;;;;;30.34;82.89;100236.72;5007050;28;20026;-74
2022/11/04 13:03:19;;;;;;;6.22;0.70;;;;;;;33.62;71.30;100255.78;5002829;28;20014;-73
2022/11/04 13:05:59;;;;;;;7.15;1.48;;;;;;;36.69;60.40;100250.72;4998973;28;20014;-75
2022/11/04 13:08:48;;;;;;;3.40;1.13;;;;;;;31.69;67.38;100261.16;5000530;28;20062;-77
2022/11/04 13:11:28;;;;;;;4.28;1.20;;;;;;;32.96;73.03;100244.53;4999152;28;20024;-73
2022/11/04 13:14:15;;;;;;;3.60;0.88;;;;;;;36.19;66.81;100258.59;5018478;28;20033;-76
2022/11/04 13:16:43;;;;;;;2.17;0.65;;;;;;;38.49;58.23;100267.78;5002459;28;20033;-74
2022/11/04 13:19:29;;;;;;;9.05;1.13;;;;;;;38.94;57.33;100274.31;4997348;28;20449;-74
2022/11/04 13:22:04;;;;;;;1.92;0.65;;;;;;;37.84;58.98;100269.22;5003885;28;20089;-76
2022/11/04 13:24:33;;;;;;;1.63;0.52;;;;;;;33.16;70.21;100264.50;5014957;28;20081;-75
2022/11/04 13:27:24;;;;;;;1.70;0.52;;;;;;;30.52;77.97;100264.09;5016930;28;20049;-77
2022/11/04 13:30:21;;;;;;;1.48;0.63;;;;;;;32.86;77.89;100262.47;4983841;28;20049;-73
2022/11/04 13:32:55;;;;;;;3.80;0.70;;;;;;;34.71;71.60;100273.31;4965005;28;20073;-77
2022/11/04 13:35:39;;;;;;;1.83;0.50;;;;;;;33.46;75.94;100273.44;5016550;28;20057;-74
2022/11/04 13:38:11;;;;;;;2.10;0.82;;;;;;;30.50;68.17;100266.53;5003527;28;20042;-76
2022/11/04 13:41:17;;;;;;;1.55;0.60;;;;;;;26.22;83.05;100265.19;5001185;28;20018;-76
2022/11/04 13:43:51;;;;;;;3.63;0.75;;;;;;;23.97;91.65;100259.03;5004287;28;20037;-75
2022/11/04 13:46:27;;;;;;;4.45;1.25;;;;;;;26.23;100.00;100267.59;5001790;28;20392;-74
2022/11/04 13:48:56;;;;;;;7.70;1.33;;;;;;;29.13;85.64;100277.63;5003461;28;20022;-75
2022/11/04 13:51:22;;;;;;;5.47;0.95;;;;;;;27.82;76.63;100280.81;5001050;28;20049;-77